aviador You're here:

LEJR Decoded Metar

JEREZ in SPAIN
Report Time2017-08-18 23:30:00
UTC Time2017-08-18 23:38:21
Flight Rules vfr VFR
WindVRB at 01 kt
Visibility9999 m
Phenomena:N/A
Clouds:N/A
Expected CloudBase > 1,200 ft AGL from Temp-Dew spread
CeilingNone
Temp24°C (ISA +9)
Dew Point21°C (83% RH)
QNH1014 hPa
Density Alt1,460 ft
Elevation98 ft
Report Wrong Elevation
Raw Report
METAR LEJR 182330Z AUTO VRB01KT 9999 NCD 24/21 Q1014=

Extra information for LEJR:More info

Metar Taf Metar & Taf Last 4 Metars F.Rules Stats Wind Profile Meteogram Temp Stats Airport Information Weather charts Add Link Nearby VenuesMetar ALERT Operation Metar Decoded Social comments